createdAt,value
2018-05-14T00:01:49.339Z,17.40
2018-05-14T00:06:40.253Z,17.40
2018-05-14T00:11:31.146Z,17.30
2018-05-14T00:16:22.837Z,17.10
2018-05-14T00:21:13.733Z,17.10
2018-05-14T00:26:04.614Z,17.10
2018-05-14T00:30:56.374Z,16.90
2018-05-14T00:35:47.205Z,16.80
2018-05-14T00:40:38.150Z,16.80
2018-05-14T00:45:29.044Z,16.70
2018-05-14T00:50:19.931Z,16.60
2018-05-14T00:55:11.575Z,16.30
2018-05-14T01:00:02.474Z,16.30
2018-05-14T01:04:54.121Z,16.10
2018-05-14T01:09:45.759Z,15.90
2018-05-14T01:14:36.662Z,15.90
2018-05-14T01:19:28.303Z,15.70
2018-05-14T01:24:19.945Z,15.60
2018-05-14T01:29:11.586Z,15.50
2018-05-14T01:34:02.480Z,15.40
2018-05-14T01:38:53.482Z,15.30
2018-05-14T01:43:44.375Z,15.20
2018-05-14T01:48:35.316Z,15.10
2018-05-14T01:53:26.213Z,15.00
2018-05-14T01:58:17.112Z,14.90
2018-05-14T02:03:08.072Z,14.80
2018-05-14T02:07:58.979Z,14.70
2018-05-14T02:12:49.875Z,14.60
2018-05-14T02:17:40.770Z,14.60
2018-05-14T02:22:32.421Z,14.30
2018-05-14T02:27:23.319Z,14.30
2018-05-14T02:32:14.947Z,14.20
2018-05-14T02:37:06.649Z,14.10
2018-05-14T02:41:57.553Z,14.00
2018-05-14T02:46:48.439Z,14.00
2018-05-14T02:51:39.420Z,13.90
2018-05-14T02:56:30.313Z,13.80
2018-05-14T03:01:21.211Z,13.70
2018-05-14T03:06:12.096Z,13.60
2018-05-14T03:11:03.737Z,13.50
2018-05-14T03:15:55.432Z,13.40
2018-05-14T03:20:46.340Z,13.40
2018-05-14T03:25:37.275Z,13.30
2018-05-14T03:30:28.178Z,13.30
2018-05-14T03:35:19.075Z,13.20
2018-05-14T03:40:09.977Z,13.20
2018-05-14T03:45:00.885Z,13.10
2018-05-14T03:49:52.580Z,13.00
2018-05-14T03:54:43.495Z,13.00
2018-05-14T03:59:46.788Z,12.90
2018-05-14T04:10:01.713Z,12.80
2018-05-14T04:14:52.612Z,12.90
2018-05-14T04:19:43.516Z,12.90
2018-05-14T04:24:34.404Z,12.90
2018-05-14T04:29:26.040Z,12.90
2018-05-14T04:34:17.753Z,13.00
2018-05-14T04:39:08.639Z,12.90
2018-05-14T04:43:59.532Z,13.00
2018-05-14T04:48:50.426Z,13.10
2018-05-14T04:53:41.312Z,13.20
2018-05-14T04:58:32.211Z,13.30
2018-05-14T05:03:23.116Z,13.40
2018-05-14T05:08:14.021Z,13.50
2018-05-14T05:13:04.921Z,13.60
2018-05-14T05:17:56.551Z,13.90
2018-05-14T05:22:47.568Z,13.90
2018-05-14T05:27:38.448Z,14.00
2018-05-14T05:32:29.409Z,14.10
2018-05-14T05:37:21.043Z,14.40
2018-05-14T05:42:11.937Z,14.40
2018-05-14T05:47:02.838Z,14.60
2018-05-14T05:51:54.583Z,14.90
2018-05-14T05:56:45.485Z,14.90
2018-05-14T06:01:36.375Z,15.10
2018-05-14T06:06:27.289Z,15.30
2018-05-14T06:11:18.939Z,15.60
2018-05-14T06:16:09.839Z,15.60
2018-05-14T06:21:01.473Z,16.00
2018-05-14T06:25:53.118Z,16.10
2018-05-14T06:30:44.117Z,16.10
2018-05-14T06:35:35.777Z,16.50
2018-05-14T06:40:27.420Z,16.60
2018-05-14T06:45:18.325Z,16.60
2018-05-14T06:50:09.297Z,16.80
2018-05-14T06:55:00.215Z,16.90
2018-05-14T06:59:51.107Z,17.10
2018-05-14T07:04:41.995Z,17.30
2018-05-14T07:09:33.688Z,17.70
2018-05-14T07:14:25.334Z,18.00
2018-05-14T07:19:17.127Z,18.30
2018-05-14T07:24:07.973Z,18.20
2018-05-14T07:28:58.888Z,18.60
2018-05-14T07:33:50.567Z,19.20
2018-05-14T07:38:42.268Z,19.50
2018-05-14T07:43:33.163Z,19.40
2018-05-14T07:48:24.059Z,19.70
2018-05-14T07:53:14.952Z,20.00
2018-05-14T07:58:06.591Z,20.40
2018-05-14T08:02:58.228Z,20.70
2018-05-14T08:07:49.872Z,20.90
2018-05-14T08:12:41.513Z,21.00
2018-05-14T08:17:32.445Z,20.90
2018-05-14T08:22:23.340Z,21.10
2018-05-14T08:27:14.990Z,21.40
2018-05-14T08:32:05.894Z,21.30
2018-05-14T08:36:57.601Z,21.50
2018-05-14T08:41:48.500Z,21.50
2018-05-14T08:46:39.401Z,21.60
2018-05-14T08:51:30.300Z,21.70
2018-05-14T08:56:21.205Z,21.80
2018-05-14T09:01:12.895Z,21.90
2018-05-14T09:06:03.796Z,21.90
2018-05-14T09:10:54.698Z,22.00
2018-05-14T09:15:45.598Z,22.00
2018-05-14T09:20:37.237Z,22.00
2018-05-14T09:25:28.946Z,22.10
2018-05-14T09:30:19.840Z,22.00
2018-05-14T09:35:10.769Z,22.10
2018-05-14T09:40:01.678Z,22.10
2018-05-14T09:44:52.579Z,22.10
2018-05-14T09:49:43.476Z,22.20
2018-05-14T09:54:34.437Z,22.20
2018-05-14T09:59:25.387Z,22.20
2018-05-14T10:04:16.280Z,22.30
2018-05-14T10:09:07.188Z,22.30
2018-05-14T10:13:58.086Z,22.40
2018-05-14T10:18:48.992Z,22.50
2018-05-14T10:23:39.901Z,22.50
2018-05-14T10:28:30.809Z,22.60
2018-05-14T10:33:22.446Z,22.70
2018-05-14T10:38:14.079Z,22.80
2018-05-14T10:43:05.768Z,23.00
2018-05-14T10:47:56.668Z,22.90
2018-05-14T10:52:47.601Z,23.10
2018-05-14T10:57:38.474Z,23.20
2018-05-14T11:02:30.112Z,23.50
2018-05-14T11:07:21.754Z,23.70
2018-05-14T11:12:12.654Z,23.70
2018-05-14T11:17:04.295Z,24.30
2018-05-14T11:21:55.927Z,24.60
2018-05-14T11:26:47.609Z,25.00
2018-05-14T11:31:38.545Z,25.00
2018-05-14T11:36:29.445Z,25.50
2018-05-14T11:41:20.383Z,25.90
2018-05-14T11:46:11.273Z,26.40
2018-05-14T11:51:02.184Z,26.80
2018-05-14T11:55:53.084Z,27.30
2018-05-14T12:00:43.989Z,27.80
2018-05-14T12:05:35.638Z,28.60
2018-05-14T12:10:26.535Z,28.60
2018-05-14T12:15:18.167Z,29.50
2018-05-14T12:20:09.069Z,29.40
2018-05-14T12:24:59.972Z,29.90
2018-05-14T12:29:50.911Z,30.20
2018-05-14T12:34:41.811Z,30.60
2018-05-14T12:39:32.722Z,31.00
2018-05-14T12:44:23.622Z,31.30
2018-05-14T12:49:14.555Z,31.60
2018-05-14T12:54:05.480Z,31.80
2018-05-14T12:58:56.396Z,31.90
2018-05-14T13:03:47.287Z,31.90
2018-05-14T13:08:38.201Z,31.90
2018-05-14T13:13:29.099Z,31.80
2018-05-14T13:18:20.736Z,31.40
2018-05-14T13:23:12.376Z,31.10
2018-05-14T13:28:04.054Z,30.80
2018-05-14T13:32:54.924Z,30.80
2018-05-14T13:37:46.603Z,30.20
2018-05-14T13:42:37.464Z,30.20
2018-05-14T13:47:28.365Z,29.90
2018-05-14T13:52:19.270Z,29.50
2018-05-14T13:57:10.172Z,29.20
2018-05-14T14:02:01.066Z,28.90
2018-05-14T14:06:51.965Z,28.60
2018-05-14T14:11:43.596Z,28.20
2018-05-14T14:16:35.243Z,28.20
2018-05-14T14:21:26.145Z,28.20
2018-05-14T14:26:17.775Z,28.40
2018-05-14T14:31:08.677Z,28.30
2018-05-14T14:35:59.721Z,28.60
2018-05-14T14:40:50.595Z,28.70
2018-05-14T14:45:42.239Z,29.00
2018-05-14T14:50:33.930Z,29.20
2018-05-14T14:55:24.831Z,29.10
2018-05-14T15:00:16.471Z,29.30
2018-05-14T15:05:08.112Z,29.30
2018-05-14T15:09:59.752Z,29.30
2018-05-14T15:14:50.731Z,29.30
2018-05-14T15:19:41.633Z,29.30
2018-05-14T15:24:32.542Z,29.30
2018-05-14T15:29:23.441Z,29.30
2018-05-14T15:34:14.371Z,29.20
2018-05-14T15:39:05.260Z,29.00
2018-05-14T15:43:56.900Z,28.70
2018-05-14T15:48:47.805Z,28.70
2018-05-14T15:53:39.449Z,28.20
2018-05-14T15:58:31.083Z,27.90
2018-05-14T16:03:22.716Z,27.60
2018-05-14T16:08:14.347Z,27.30
2018-05-14T16:13:05.990Z,27.00
2018-05-14T16:17:57.637Z,26.70
2018-05-14T16:22:48.524Z,26.70
2018-05-14T16:27:39.524Z,26.50
2018-05-14T16:32:30.425Z,26.30
2018-05-14T16:37:22.051Z,25.70
2018-05-14T16:42:12.957Z,25.70
2018-05-14T16:47:03.870Z,25.50
2018-05-14T16:51:54.764Z,25.30
2018-05-14T16:56:45.689Z,25.00
2018-05-14T17:01:36.593Z,24.80
2018-05-14T17:06:27.494Z,24.60
2018-05-14T17:11:19.222Z,24.30
2018-05-14T17:16:10.133Z,24.20
2018-05-14T17:21:01.029Z,24.00
2018-05-14T17:25:51.931Z,23.80
2018-05-14T17:30:42.844Z,23.60
2018-05-14T17:35:33.808Z,23.50
2018-05-14T17:40:24.798Z,23.20
2018-05-14T17:45:15.699Z,23.10
2018-05-14T17:50:07.330Z,22.70
2018-05-14T17:54:58.959Z,22.50
2018-05-14T17:59:50.591Z,22.40
2018-05-14T18:04:42.219Z,22.20
2018-05-14T18:09:33.902Z,22.00
2018-05-14T18:14:24.808Z,22.00
2018-05-14T18:19:15.721Z,21.90
2018-05-14T18:24:06.628Z,21.70
2018-05-14T18:29:04.487Z,21.40
2018-05-14T18:34:03.105Z,21.20
2018-05-14T18:38:54.744Z,21.10
2018-05-14T18:43:46.386Z,20.90
2018-05-14T18:48:37.280Z,20.90
2018-05-14T18:53:28.268Z,20.80
2018-05-14T18:58:19.154Z,20.70
2018-05-14T19:03:10.104Z,20.50
2018-05-14T19:08:01.010Z,20.40
2018-05-14T19:12:51.904Z,20.20
2018-05-14T19:17:48.946Z,20.10
2018-05-14T19:22:46.938Z,19.70
2018-05-14T19:27:38.591Z,19.60
2018-05-14T19:32:29.495Z,19.50
2018-05-14T19:37:21.217Z,19.30
2018-05-14T19:42:12.876Z,19.10
2018-05-14T19:47:03.844Z,19.00
2018-05-14T19:51:54.775Z,18.90
2018-05-14T19:56:46.411Z,18.60
2018-05-14T20:01:37.445Z,18.60
2018-05-14T20:06:28.377Z,18.40
2018-05-14T20:11:20.077Z,18.20
2018-05-14T20:16:10.975Z,18.10
2018-05-14T20:21:01.917Z,18.00
2018-05-14T20:25:52.824Z,17.90
2018-05-14T20:30:43.743Z,17.70
2018-05-14T20:35:34.640Z,17.60
2018-05-14T20:40:25.545Z,17.50
2018-05-14T20:45:16.525Z,17.30
2018-05-14T20:50:07.411Z,17.20
2018-05-14T20:54:58.294Z,17.00
2018-05-14T20:59:49.287Z,16.90
2018-05-14T21:04:40.835Z,16.60
2018-05-14T21:09:31.804Z,16.50
2018-05-14T21:14:22.725Z,16.40
2018-05-14T21:19:13.621Z,16.30
2018-05-14T21:24:04.529Z,16.20
2018-05-14T21:28:55.433Z,16.10
2018-05-14T21:33:47.067Z,15.90
2018-05-14T21:38:38.755Z,15.80
2018-05-14T21:43:29.756Z,15.70
2018-05-14T21:48:20.687Z,15.70
2018-05-14T21:53:11.642Z,15.60
2018-05-14T21:58:03.354Z,15.30
2018-05-14T22:02:54.268Z,15.30
2018-05-14T22:07:45.241Z,15.30
2018-05-14T22:12:36.900Z,15.00
2018-05-14T22:17:27.791Z,15.00
2018-05-14T22:22:19.487Z,14.80
2018-05-14T22:27:10.442Z,14.80
2018-05-14T22:32:02.153Z,14.60
2018-05-14T22:36:53.051Z,14.60
2018-05-14T22:41:43.965Z,14.50
2018-05-14T22:46:34.896Z,14.40
2018-05-14T22:51:25.785Z,14.30
2018-05-14T22:56:16.685Z,14.20
2018-05-14T23:01:08.319Z,13.90
2018-05-14T23:06:00.019Z,13.80
2018-05-14T23:10:50.911Z,13.80
2018-05-14T23:15:41.827Z,13.70
2018-05-14T23:20:32.722Z,13.60
2018-05-14T23:25:23.622Z,13.50
2018-05-14T23:30:15.327Z,13.30
2018-05-14T23:35:06.232Z,13.30
2018-05-14T23:39:57.143Z,13.20
2018-05-14T23:44:48.095Z,13.10
2018-05-14T23:49:38.984Z,13.00
2018-05-14T23:54:29.892Z,12.90
2018-05-14T23:59:20.783Z,12.80
